Weather at Jaffrey Airport Silver Ranch Airport

Public forecast

Using degrees Fahrenheit for public forecast. Weather courtesy of forecast.io.

Current aviation weather report (METAR) for Jaffrey Airport Silver Ranch Airport

Retrieved 2020/11/30 12:52 UTC (31 minutes ago):

KAFN 301252Z AUTO 00000KT 10SM OVC041 00/M03 A3003 RMK AO2 SLP184 T00001028

Closest aviation forecast (TAF) to Jaffrey Airport Silver Ranch Airport

Closest forecast is Manchester-Boston Regional Airport, 26.1 nm (48.4 km) ENE. Retrieved 2020/11/30 12:24 UTC (59 minutes ago):

TAF KMHT 301121Z 3012/0112 VRB03KT P6SM BKN250 FM301400 VRB04KT P6SM BKN050 OVC100 FM301700 12008G15KT 3SM -RA OVC012 WS020/16050KT FM302100 14016G28KT 2SM +RA BR OVC007 WS020/16050KT FM010500 17010KT 1SM -DZ BR OVC007 WS020/18045KT